sensor_id;sensor_type;location;lat;lon;timestamp;P1;durP1;ratioP1;P2;durP2;ratioP2
50543;SDS011;41176;44.032;20.900;2023-03-03T00:00:21;4.25;;;1.50;;
50543;SDS011;41176;44.032;20.900;2023-03-03T00:02:47;1.15;;;0.93;;
50543;SDS011;41176;44.032;20.900;2023-03-03T00:05:13;2.80;;;2.53;;
50543;SDS011;41176;44.032;20.900;2023-03-03T00:07:44;1.55;;;1.13;;
50543;SDS011;41176;44.032;20.900;2023-03-03T00:10:10;2.60;;;2.17;;
50543;SDS011;41176;44.032;20.900;2023-03-03T00:12:42;1.77;;;1.40;;
50543;SDS011;41176;44.032;20.900;2023-03-03T00:15:14;2.75;;;1.95;;
50543;SDS011;41176;44.032;20.900;2023-03-03T00:17:45;6.68;;;2.70;;
50543;SDS011;41176;44.032;20.900;2023-03-03T00:20:56;3.05;;;1.48;;
50543;SDS011;41176;44.032;20.900;2023-03-03T00:31:10;5.25;;;2.53;;
50543;SDS011;41176;44.032;20.900;2023-03-03T00:33:44;1.65;;;0.82;;
50543;SDS011;41176;44.032;20.900;2023-03-03T00:38:52;2.97;;;1.83;;
50543;SDS011;41176;44.032;20.900;2023-03-03T00:42:09;3.65;;;1.73;;
50543;SDS011;41176;44.032;20.900;2023-03-03T00:44:45;2.10;;;1.63;;
50543;SDS011;41176;44.032;20.900;2023-03-03T00:47:25;3.03;;;1.85;;
50543;SDS011;41176;44.032;20.900;2023-03-03T00:50:02;6.60;;;3.22;;
50543;SDS011;41176;44.032;20.900;2023-03-03T00:52:50;4.63;;;1.77;;
50543;SDS011;41176;44.032;20.900;2023-03-03T00:55:24;1.80;;;1.25;;
50543;SDS011;41176;44.032;20.900;2023-03-03T00:57:51;2.75;;;1.98;;
50543;SDS011;41176;44.032;20.900;2023-03-03T01:00:17;3.40;;;2.13;;
50543;SDS011;41176;44.032;20.900;2023-03-03T01:02:43;2.72;;;1.40;;
50543;SDS011;41176;44.032;20.900;2023-03-03T01:05:12;2.72;;;2.10;;
50543;SDS011;41176;44.032;20.900;2023-03-03T01:07:39;3.53;;;1.38;;
50543;SDS011;41176;44.032;20.900;2023-03-03T01:10:05;1.83;;;1.55;;
50543;SDS011;41176;44.032;20.900;2023-03-03T01:12:31;4.15;;;1.77;;
50543;SDS011;41176;44.032;20.900;2023-03-03T01:14:56;1.60;;;1.35;;
50543;SDS011;41176;44.032;20.900;2023-03-03T01:17:25;3.00;;;2.35;;
50543;SDS011;41176;44.032;20.900;2023-03-03T01:19:53;2.42;;;2.15;;
50543;SDS011;41176;44.032;20.900;2023-03-03T01:22:18;4.00;;;2.95;;
50543;SDS011;41176;44.032;20.900;2023-03-03T01:24:44;2.90;;;1.73;;
50543;SDS011;41176;44.032;20.900;2023-03-03T01:27:10;7.97;;;2.45;;
50543;SDS011;41176;44.032;20.900;2023-03-03T01:29:35;1.48;;;1.30;;
50543;SDS011;41176;44.032;20.900;2023-03-03T01:32:01;2.78;;;1.52;;
50543;SDS011;41176;44.032;20.900;2023-03-03T01:34:27;2.65;;;1.52;;
50543;SDS011;41176;44.032;20.900;2023-03-03T01:36:52;1.50;;;1.27;;
50543;SDS011;41176;44.032;20.900;2023-03-03T01:39:18;3.58;;;2.83;;
50543;SDS011;41176;44.032;20.900;2023-03-03T01:41:44;4.38;;;2.40;;
50543;SDS011;41176;44.032;20.900;2023-03-03T01:44:13;2.35;;;1.83;;
50543;SDS011;41176;44.032;20.900;2023-03-03T01:55:04;1.05;;;0.68;;
50543;SDS011;41176;44.032;20.900;2023-03-03T01:57:36;9.35;;;2.25;;
50543;SDS011;41176;44.032;20.900;2023-03-03T02:00:06;2.38;;;1.42;;
50543;SDS011;41176;44.032;20.900;2023-03-03T02:02:32;2.65;;;2.45;;
50543;SDS011;41176;44.032;20.900;2023-03-03T02:05:00;2.85;;;2.35;;
50543;SDS011;41176;44.032;20.900;2023-03-03T02:07:26;3.33;;;1.88;;
50543;SDS011;41176;44.032;20.900;2023-03-03T02:12:33;2.58;;;2.05;;
50543;SDS011;41176;44.032;20.900;2023-03-03T02:15:23;7.88;;;3.00;;
50543;SDS011;41176;44.032;20.900;2023-03-03T02:17:52;3.08;;;2.00;;
50543;SDS011;41176;44.032;20.900;2023-03-03T02:23:29;3.75;;;2.35;;
50543;SDS011;41176;44.032;20.900;2023-03-03T02:26:09;3.22;;;2.15;;
50543;SDS011;41176;44.032;20.900;2023-03-03T02:28:35;4.32;;;2.45;;
50543;SDS011;41176;44.032;20.900;2023-03-03T02:31:04;4.93;;;1.98;;
50543;SDS011;41176;44.032;20.900;2023-03-03T02:33:32;2.80;;;2.28;;
50543;SDS011;41176;44.032;20.900;2023-03-03T02:35:57;3.80;;;1.60;;
50543;SDS011;41176;44.032;20.900;2023-03-03T02:41:12;3.42;;;1.83;;
50543;SDS011;41176;44.032;20.900;2023-03-03T02:43:45;3.08;;;2.13;;
50543;SDS011;41176;44.032;20.900;2023-03-03T02:46:37;1.20;;;1.02;;
50543;SDS011;41176;44.032;20.900;2023-03-03T02:49:05;4.28;;;2.55;;
50543;SDS011;41176;44.032;20.900;2023-03-03T02:51:32;1.85;;;1.55;;
50543;SDS011;41176;44.032;20.900;2023-03-03T02:53:58;1.00;;;0.90;;
50543;SDS011;41176;44.032;20.900;2023-03-03T02:56:23;3.08;;;2.08;;
50543;SDS011;41176;44.032;20.900;2023-03-03T02:58:51;3.72;;;1.77;;
50543;SDS011;41176;44.032;20.900;2023-03-03T03:01:17;6.03;;;2.30;;
50543;SDS011;41176;44.032;20.900;2023-03-03T03:28:28;3.40;;;1.80;;
50543;SDS011;41176;44.032;20.900;2023-03-03T03:31:15;1.48;;;1.27;;
50543;SDS011;41176;44.032;20.900;2023-03-03T03:34:00;1.58;;;1.33;;
50543;SDS011;41176;44.032;20.900;2023-03-03T03:39:39;3.65;;;2.22;;
50543;SDS011;41176;44.032;20.900;2023-03-03T03:42:24;1.88;;;1.42;;
50543;SDS011;41176;44.032;20.900;2023-03-03T03:59:49;1.10;;;0.85;;
50543;SDS011;41176;44.032;20.900;2023-03-03T04:02:23;3.88;;;2.45;;
50543;SDS011;41176;44.032;20.900;2023-03-03T04:45:57;1.70;;;1.40;;
50543;SDS011;41176;44.032;20.900;2023-03-03T04:48:25;1.58;;;1.42;;
50543;SDS011;41176;44.032;20.900;2023-03-03T04:51:05;3.97;;;2.90;;
50543;SDS011;41176;44.032;20.900;2023-03-03T04:53:43;2.35;;;1.20;;
50543;SDS011;41176;44.032;20.900;2023-03-03T04:56:12;2.03;;;1.38;;
50543;SDS011;41176;44.032;20.900;2023-03-03T04:58:41;2.13;;;1.30;;
50543;SDS011;41176;44.032;20.900;2023-03-03T05:01:15;1.42;;;1.25;;
50543;SDS011;41176;44.032;20.900;2023-03-03T05:03:43;3.50;;;1.55;;
50543;SDS011;41176;44.032;20.900;2023-03-03T05:06:09;3.03;;;2.35;;
50543;SDS011;41176;44.032;20.900;2023-03-03T05:08:35;2.10;;;1.83;;
50543;SDS011;41176;44.032;20.900;2023-03-03T05:11:04;2.47;;;1.60;;
50543;SDS011;41176;44.032;20.900;2023-03-03T05:13:30;2.55;;;1.70;;
50543;SDS011;41176;44.032;20.900;2023-03-03T05:15:56;2.22;;;1.83;;
50543;SDS011;41176;44.032;20.900;2023-03-03T05:18:22;2.45;;;1.77;;
50543;SDS011;41176;44.032;20.900;2023-03-03T05:20:49;4.13;;;2.08;;
50543;SDS011;41176;44.032;20.900;2023-03-03T05:23:16;4.35;;;1.30;;
50543;SDS011;41176;44.032;20.900;2023-03-03T05:25:43;1.60;;;1.02;;
50543;SDS011;41176;44.032;20.900;2023-03-03T05:28:11;5.70;;;3.72;;
50543;SDS011;41176;44.032;20.900;2023-03-03T05:30:37;2.72;;;2.35;;
50543;SDS011;41176;44.032;20.900;2023-03-03T05:33:03;3.95;;;2.22;;
50543;SDS011;41176;44.032;20.900;2023-03-03T05:35:30;1.08;;;0.73;;
50543;SDS011;41176;44.032;20.900;2023-03-03T05:37:55;3.92;;;2.40;;
50543;SDS011;41176;44.032;20.900;2023-03-03T05:40:22;5.50;;;3.13;;
50543;SDS011;41176;44.032;20.900;2023-03-03T06:06:45;5.50;;;1.85;;
50543;SDS011;41176;44.032;20.900;2023-03-03T06:23:51;2.70;;;2.08;;
50543;SDS011;41176;44.032;20.900;2023-03-03T06:26:16;4.63;;;4.18;;
50543;SDS011;41176;44.032;20.900;2023-03-03T06:28:42;7.53;;;1.63;;
50543;SDS011;41176;44.032;20.900;2023-03-03T06:31:10;2.80;;;2.10;;
50543;SDS011;41176;44.032;20.900;2023-03-03T06:33:36;3.38;;;1.60;;
50543;SDS011;41176;44.032;20.900;2023-03-03T06:36:14;6.18;;;1.90;;
50543;SDS011;41176;44.032;20.900;2023-03-03T06:39:16;2.55;;;1.45;;
50543;SDS011;41176;44.032;20.900;2023-03-03T06:42:30;2.25;;;2.05;;
50543;SDS011;41176;44.032;20.900;2023-03-03T06:45:35;3.70;;;3.00;;
50543;SDS011;41176;44.032;20.900;2023-03-03T07:12:00;1.27;;;1.17;;
50543;SDS011;41176;44.032;20.900;2023-03-03T07:24:50;2.15;;;1.73;;
50543;SDS011;41176;44.032;20.900;2023-03-03T07:29:48;2.63;;;2.42;;
50543;SDS011;41176;44.032;20.900;2023-03-03T07:40:52;7.90;;;3.08;;
50543;SDS011;41176;44.032;20.900;2023-03-03T07:48:55;6.43;;;3.38;;
50543;SDS011;41176;44.032;20.900;2023-03-03T07:51:23;4.38;;;1.55;;
50543;SDS011;41176;44.032;20.900;2023-03-03T07:57:47;3.60;;;2.42;;
50543;SDS011;41176;44.032;20.900;2023-03-03T08:03:14;2.67;;;2.40;;
50543;SDS011;41176;44.032;20.900;2023-03-03T08:05:47;2.65;;;1.23;;
50543;SDS011;41176;44.032;20.900;2023-03-03T08:08:48;3.55;;;2.83;;
50543;SDS011;41176;44.032;20.900;2023-03-03T08:18:23;5.78;;;3.03;;
50543;SDS011;41176;44.032;20.900;2023-03-03T08:20:59;2.75;;;1.67;;
50543;SDS011;41176;44.032;20.900;2023-03-03T08:23:45;2.50;;;2.00;;
50543;SDS011;41176;44.032;20.900;2023-03-03T08:26:13;1.65;;;1.50;;
50543;SDS011;41176;44.032;20.900;2023-03-03T08:28:40;2.58;;;1.98;;
50543;SDS011;41176;44.032;20.900;2023-03-03T08:31:06;2.90;;;2.35;;
50543;SDS011;41176;44.032;20.900;2023-03-03T09:50:11;2.97;;;1.67;;
50543;SDS011;41176;44.032;20.900;2023-03-03T09:55:43;2.63;;;1.15;;
50543;SDS011;41176;44.032;20.900;2023-03-03T09:58:28;3.15;;;0.88;;
50543;SDS011;41176;44.032;20.900;2023-03-03T10:09:38;2.83;;;1.48;;
50543;SDS011;41176;44.032;20.900;2023-03-03T10:12:26;2.53;;;2.33;;
50543;SDS011;41176;44.032;20.900;2023-03-03T10:15:00;3.72;;;3.10;;
50543;SDS011;41176;44.032;20.900;2023-03-03T10:29:25;2.40;;;1.70;;
50543;SDS011;41176;44.032;20.900;2023-03-03T10:40:41;2.10;;;1.77;;
50543;SDS011;41176;44.032;20.900;2023-03-03T10:43:23;4.57;;;1.95;;
50543;SDS011;41176;44.032;20.900;2023-03-03T10:46:20;2.30;;;1.60;;
50543;SDS011;41176;44.032;20.900;2023-03-03T11:08:28;2.58;;;1.75;;
50543;SDS011;41176;44.032;20.900;2023-03-03T11:11:09;2.45;;;1.55;;
50543;SDS011;41176;44.032;20.900;2023-03-03T11:13:55;1.85;;;1.45;;
50543;SDS011;41176;44.032;20.900;2023-03-03T11:41:34;4.97;;;3.35;;
50543;SDS011;41176;44.032;20.900;2023-03-03T11:44:23;4.32;;;2.88;;
50543;SDS011;41176;44.032;20.900;2023-03-03T11:55:12;2.95;;;1.83;;
50543;SDS011;41176;44.032;20.900;2023-03-03T11:58:16;3.45;;;3.00;;
50543;SDS011;41176;44.032;20.900;2023-03-03T12:01:08;4.20;;;2.03;;
50543;SDS011;41176;44.032;20.900;2023-03-03T12:03:56;0.63;;;0.57;;
50543;SDS011;41176;44.032;20.900;2023-03-03T12:09:30;3.80;;;1.23;;
50543;SDS011;41176;44.032;20.900;2023-03-03T12:12:13;3.33;;;2.00;;
50543;SDS011;41176;44.032;20.900;2023-03-03T12:41:30;3.72;;;2.47;;
50543;SDS011;41176;44.032;20.900;2023-03-03T12:55:21;3.03;;;1.88;;
50543;SDS011;41176;44.032;20.900;2023-03-03T12:58:17;1.63;;;1.33;;
50543;SDS011;41176;44.032;20.900;2023-03-03T13:01:27;3.63;;;2.63;;
50543;SDS011;41176;44.032;20.900;2023-03-03T13:12:02;2.00;;;1.58;;
50543;SDS011;41176;44.032;20.900;2023-03-03T13:17:22;7.55;;;4.25;;
50543;SDS011;41176;44.032;20.900;2023-03-03T13:26:05;9.63;;;4.90;;
50543;SDS011;41176;44.032;20.900;2023-03-03T13:28:36;7.30;;;4.78;;
50543;SDS011;41176;44.032;20.900;2023-03-03T13:33:48;5.80;;;3.85;;
50543;SDS011;41176;44.032;20.900;2023-03-03T13:36:24;3.17;;;2.60;;
50543;SDS011;41176;44.032;20.900;2023-03-03T13:39:21;4.18;;;2.53;;
50543;SDS011;41176;44.032;20.900;2023-03-03T13:44:47;8.68;;;2.72;;
50543;SDS011;41176;44.032;20.900;2023-03-03T13:47:18;5.90;;;3.63;;
50543;SDS011;41176;44.032;20.900;2023-03-03T14:18:52;8.37;;;3.50;;
50543;SDS011;41176;44.032;20.900;2023-03-03T14:21:34;3.50;;;3.17;;
50543;SDS011;41176;44.032;20.900;2023-03-03T14:24:16;4.13;;;2.65;;
50543;SDS011;41176;44.032;20.900;2023-03-03T14:26:54;4.82;;;3.00;;
50543;SDS011;41176;44.032;20.900;2023-03-03T14:31:51;4.55;;;3.10;;
50543;SDS011;41176;44.032;20.900;2023-03-03T14:36:47;7.13;;;3.60;;
50543;SDS011;41176;44.032;20.900;2023-03-03T14:39:31;5.35;;;2.78;;
50543;SDS011;41176;44.032;20.900;2023-03-03T14:42:09;5.97;;;3.22;;
50543;SDS011;41176;44.032;20.900;2023-03-03T14:45:01;4.40;;;3.28;;
50543;SDS011;41176;44.032;20.900;2023-03-03T14:47:44;6.38;;;3.65;;
50543;SDS011;41176;44.032;20.900;2023-03-03T15:12:39;5.65;;;4.55;;
50543;SDS011;41176;44.032;20.900;2023-03-03T15:18:15;7.60;;;4.03;;
50543;SDS011;41176;44.032;20.900;2023-03-03T15:26:07;5.43;;;4.93;;
50543;SDS011;41176;44.032;20.900;2023-03-03T15:34:56;4.68;;;2.28;;
50543;SDS011;41176;44.032;20.900;2023-03-03T15:38:09;10.15;;;5.13;;
50543;SDS011;41176;44.032;20.900;2023-03-03T15:47:09;4.78;;;2.90;;
50543;SDS011;41176;44.032;20.900;2023-03-03T15:50:03;6.93;;;4.35;;
50543;SDS011;41176;44.032;20.900;2023-03-03T16:01:26;9.00;;;4.53;;
50543;SDS011;41176;44.032;20.900;2023-03-03T16:04:04;5.32;;;4.18;;
50543;SDS011;41176;44.032;20.900;2023-03-03T16:12:45;7.47;;;5.35;;
50543;SDS011;41176;44.032;20.900;2023-03-03T16:18:55;7.00;;;5.07;;
50543;SDS011;41176;44.032;20.900;2023-03-03T16:24:59;3.97;;;2.92;;
50543;SDS011;41176;44.032;20.900;2023-03-03T16:27:46;4.82;;;3.00;;
50543;SDS011;41176;44.032;20.900;2023-03-03T16:41:34;9.43;;;3.72;;
50543;SDS011;41176;44.032;20.900;2023-03-03T16:54:30;8.43;;;5.18;;
50543;SDS011;41176;44.032;20.900;2023-03-03T16:56:43;11.97;;;4.37;;
50543;SDS011;41176;44.032;20.900;2023-03-03T17:17:43;6.35;;;4.93;;
50543;SDS011;41176;44.032;20.900;2023-03-03T17:25:36;14.00;;;6.88;;
50543;SDS011;41176;44.032;20.900;2023-03-03T17:31:28;9.18;;;4.93;;
50543;SDS011;41176;44.032;20.900;2023-03-03T17:34:21;15.27;;;6.88;;
50543;SDS011;41176;44.032;20.900;2023-03-03T17:40:02;11.30;;;6.82;;
50543;SDS011;41176;44.032;20.900;2023-03-03T17:42:46;10.13;;;6.88;;
50543;SDS011;41176;44.032;20.900;2023-03-03T17:45:37;13.70;;;6.13;;
50543;SDS011;41176;44.032;20.900;2023-03-03T17:56:40;8.48;;;5.25;;
50543;SDS011;41176;44.032;20.900;2023-03-03T17:59:37;10.80;;;6.72;;
50543;SDS011;41176;44.032;20.900;2023-03-03T18:07:54;11.35;;;7.95;;
50543;SDS011;41176;44.032;20.900;2023-03-03T18:37:48;9.80;;;5.10;;
50543;SDS011;41176;44.032;20.900;2023-03-03T18:40:19;4.63;;;3.25;;
50543;SDS011;41176;44.032;20.900;2023-03-03T18:42:45;6.18;;;4.40;;
50543;SDS011;41176;44.032;20.900;2023-03-03T18:48:01;17.25;;;5.28;;
50543;SDS011;41176;44.032;20.900;2023-03-03T18:50:42;8.15;;;3.45;;
50543;SDS011;41176;44.032;20.900;2023-03-03T18:53:23;9.40;;;5.00;;
50543;SDS011;41176;44.032;20.900;2023-03-03T18:55:56;12.23;;;5.22;;
50543;SDS011;41176;44.032;20.900;2023-03-03T18:58:38;11.18;;;6.32;;
50543;SDS011;41176;44.032;20.900;2023-03-03T19:09:10;4.50;;;3.10;;
50543;SDS011;41176;44.032;20.900;2023-03-03T19:11:42;10.50;;;5.88;;
50543;SDS011;41176;44.032;20.900;2023-03-03T19:14:17;7.47;;;5.60;;
50543;SDS011;41176;44.032;20.900;2023-03-03T19:16:44;16.73;;;7.57;;
50543;SDS011;41176;44.032;20.900;2023-03-03T19:19:15;6.30;;;5.05;;
50543;SDS011;41176;44.032;20.900;2023-03-03T19:21:43;10.48;;;6.18;;
50543;SDS011;41176;44.032;20.900;2023-03-03T19:26:56;9.38;;;5.75;;
50543;SDS011;41176;44.032;20.900;2023-03-03T19:32:34;8.73;;;6.28;;
50543;SDS011;41176;44.032;20.900;2023-03-03T19:35:39;11.27;;;6.30;;
50543;SDS011;41176;44.032;20.900;2023-03-03T19:38:30;7.60;;;5.28;;
50543;SDS011;41176;44.032;20.900;2023-03-03T19:41:10;9.65;;;6.38;;
50543;SDS011;41176;44.032;20.900;2023-03-03T19:47:05;6.15;;;4.75;;
50543;SDS011;41176;44.032;20.900;2023-03-03T19:56:08;17.83;;;10.38;;
50543;SDS011;41176;44.032;20.900;2023-03-03T20:04:41;8.85;;;4.45;;
50543;SDS011;41176;44.032;20.900;2023-03-03T20:18:42;6.03;;;3.63;;
50543;SDS011;41176;44.032;20.900;2023-03-03T20:25:04;9.52;;;7.00;;
50543;SDS011;41176;44.032;20.900;2023-03-03T20:31:05;6.90;;;5.13;;
50543;SDS011;41176;44.032;20.900;2023-03-03T20:36:55;11.70;;;6.35;;
50543;SDS011;41176;44.032;20.900;2023-03-03T20:42:02;9.95;;;6.88;;
50543;SDS011;41176;44.032;20.900;2023-03-03T20:53:28;13.93;;;7.60;;
50543;SDS011;41176;44.032;20.900;2023-03-03T21:05:05;11.60;;;6.82;;
50543;SDS011;41176;44.032;20.900;2023-03-03T21:07:53;11.95;;;7.10;;
50543;SDS011;41176;44.032;20.900;2023-03-03T21:10:28;6.35;;;5.38;;
50543;SDS011;41176;44.032;20.900;2023-03-03T21:12:57;13.00;;;6.30;;
50543;SDS011;41176;44.032;20.900;2023-03-03T21:15:52;9.40;;;7.55;;
50543;SDS011;41176;44.032;20.900;2023-03-03T21:18:31;20.25;;;13.73;;
50543;SDS011;41176;44.032;20.900;2023-03-03T21:20:57;17.98;;;10.13;;
50543;SDS011;41176;44.032;20.900;2023-03-03T21:23:23;11.70;;;6.95;;
50543;SDS011;41176;44.032;20.900;2023-03-03T21:25:50;10.45;;;6.57;;
50543;SDS011;41176;44.032;20.900;2023-03-03T21:31:02;10.85;;;5.32;;
50543;SDS011;41176;44.032;20.900;2023-03-03T21:36:45;12.35;;;5.78;;
50543;SDS011;41176;44.032;20.900;2023-03-03T21:49:04;8.50;;;5.18;;
50543;SDS011;41176;44.032;20.900;2023-03-03T21:51:30;11.82;;;7.38;;
50543;SDS011;41176;44.032;20.900;2023-03-03T21:53:58;8.98;;;5.25;;
50543;SDS011;41176;44.032;20.900;2023-03-03T21:56:25;16.45;;;7.68;;
50543;SDS011;41176;44.032;20.900;2023-03-03T21:59:04;24.40;;;9.98;;
50543;SDS011;41176;44.032;20.900;2023-03-03T22:01:42;13.50;;;7.28;;
50543;SDS011;41176;44.032;20.900;2023-03-03T22:04:17;8.18;;;6.13;;
50543;SDS011;41176;44.032;20.900;2023-03-03T22:06:43;15.82;;;8.68;;
50543;SDS011;41176;44.032;20.900;2023-03-03T22:09:09;14.00;;;9.48;;
50543;SDS011;41176;44.032;20.900;2023-03-03T22:11:35;14.73;;;9.88;;
50543;SDS011;41176;44.032;20.900;2023-03-03T22:14:03;9.10;;;6.97;;
50543;SDS011;41176;44.032;20.900;2023-03-03T22:16:30;13.15;;;7.95;;
50543;SDS011;41176;44.032;20.900;2023-03-03T22:18:57;6.32;;;5.20;;
50543;SDS011;41176;44.032;20.900;2023-03-03T22:21:22;11.32;;;7.03;;
50543;SDS011;41176;44.032;20.900;2023-03-03T22:23:48;22.27;;;7.40;;
50543;SDS011;41176;44.032;20.900;2023-03-03T22:26:14;7.55;;;5.90;;
50543;SDS011;41176;44.032;20.900;2023-03-03T22:28:40;10.85;;;5.43;;
50543;SDS011;41176;44.032;20.900;2023-03-03T22:31:05;4.70;;;3.40;;
50543;SDS011;41176;44.032;20.900;2023-03-03T22:33:31;5.15;;;4.35;;
50543;SDS011;41176;44.032;20.900;2023-03-03T22:35:57;4.72;;;3.97;;
50543;SDS011;41176;44.032;20.900;2023-03-03T22:38:23;8.25;;;5.00;;
50543;SDS011;41176;44.032;20.900;2023-03-03T22:40:49;4.75;;;4.07;;
50543;SDS011;41176;44.032;20.900;2023-03-03T22:43:16;6.47;;;3.55;;
50543;SDS011;41176;44.032;20.900;2023-03-03T22:45:42;9.77;;;6.30;;
50543;SDS011;41176;44.032;20.900;2023-03-03T22:48:08;14.82;;;6.97;;
50543;SDS011;41176;44.032;20.900;2023-03-03T22:50:35;10.38;;;6.78;;
50543;SDS011;41176;44.032;20.900;2023-03-03T22:53:03;10.15;;;5.10;;
50543;SDS011;41176;44.032;20.900;2023-03-03T22:55:32;8.55;;;3.45;;
50543;SDS011;41176;44.032;20.900;2023-03-03T22:58:01;17.50;;;8.70;;
50543;SDS011;41176;44.032;20.900;2023-03-03T23:00:28;12.70;;;5.80;;
50543;SDS011;41176;44.032;20.900;2023-03-03T23:02:57;6.32;;;5.25;;
50543;SDS011;41176;44.032;20.900;2023-03-03T23:05:23;6.55;;;4.20;;
50543;SDS011;41176;44.032;20.900;2023-03-03T23:07:49;9.95;;;5.50;;
50543;SDS011;41176;44.032;20.900;2023-03-03T23:10:15;6.50;;;4.60;;
50543;SDS011;41176;44.032;20.900;2023-03-03T23:12:41;7.68;;;4.53;;
50543;SDS011;41176;44.032;20.900;2023-03-03T23:15:07;8.27;;;4.72;;
50543;SDS011;41176;44.032;20.900;2023-03-03T23:17:40;8.13;;;4.03;;
50543;SDS011;41176;44.032;20.900;2023-03-03T23:20:08;7.40;;;3.95;;
50543;SDS011;41176;44.032;20.900;2023-03-03T23:22:35;9.70;;;6.13;;
50543;SDS011;41176;44.032;20.900;2023-03-03T23:25:01;6.25;;;4.68;;
50543;SDS011;41176;44.032;20.900;2023-03-03T23:27:27;8.65;;;6.18;;
50543;SDS011;41176;44.032;20.900;2023-03-03T23:29:52;6.03;;;3.70;;
50543;SDS011;41176;44.032;20.900;2023-03-03T23:32:19;8.40;;;5.35;;
50543;SDS011;41176;44.032;20.900;2023-03-03T23:34:52;5.05;;;3.63;;
50543;SDS011;41176;44.032;20.900;2023-03-03T23:37:18;5.65;;;3.42;;
50543;SDS011;41176;44.032;20.900;2023-03-03T23:39:44;7.50;;;4.75;;
50543;SDS011;41176;44.032;20.900;2023-03-03T23:42:10;6.53;;;3.83;;
50543;SDS011;41176;44.032;20.900;2023-03-03T23:44:36;20.88;;;4.72;;
50543;SDS011;41176;44.032;20.900;2023-03-03T23:47:04;6.65;;;4.30;;
50543;SDS011;41176;44.032;20.900;2023-03-03T23:49:52;6.80;;;4.70;;
50543;SDS011;41176;44.032;20.900;2023-03-03T23:52:19;12.48;;;6.00;;
50543;SDS011;41176;44.032;20.900;2023-03-03T23:54:45;5.18;;;3.30;;
50543;SDS011;41176;44.032;20.900;2023-03-03T23:57:11;6.40;;;3.47;;
50543;SDS011;41176;44.032;20.900;2023-03-03T23:59:37;8.63;;;3.80;;
